Time;durP1;ratioP1;P1;durP2;ratioP2;P2;SDS_P1;SDS_P2;PMS_P1;PMS_P2;Temp;Humidity;BMP_temperature;BMP_pressure;BME280_temperature;BME280_humidity;BME280_pressure;Samples;Min_cycle;Max_cycle;Signal;HPM_P1;HPM_P2
2023/01/17 00:01:59;;;;;;;1.00;1.00;;;4.70;99.90;;;;;;5137513;27;20262;-81
2023/01/17 00:10:06;;;;;;;1.00;1.00;;;4.40;99.90;;;;;;5126044;27;20211;-82
2023/01/17 00:12:35;;;;;;;1.20;1.20;;;4.40;99.90;;;;;;5136122;27;20232;-82
2023/01/17 00:15:04;;;;;;;1.10;1.10;;;4.30;68.80;;;;;;5139816;27;20765;-83
2023/01/17 00:17:32;;;;;;;1.20;1.20;;;4.20;99.90;;;;;;5136650;27;20197;-82
2023/01/17 01:35:52;;;;;;;0.93;0.93;;;4.10;1.00;;;;;;5141190;27;20191;-82
2023/01/17 01:38:22;;;;;;;1.25;1.13;;;4.10;1.00;;;;;;5143267;27;20197;-82
2023/01/17 01:40:52;;;;;;;3.42;1.25;;;4.10;1.00;;;;;;5143693;27;20224;-82
2023/01/17 01:43:42;;;;;;;1.00;1.00;;;4.10;1.00;;;;;;5143089;27;20205;-80
2023/01/17 01:46:12;;;;;;;1.00;1.00;;;4.10;1.00;;;;;;5125629;27;20234;-82
2023/01/17 01:48:44;;;;;;;1.42;1.00;;;4.20;1.00;;;;;;5123576;27;20291;-81
2023/01/17 01:51:16;;;;;;;0.98;0.98;;;4.10;1.00;;;;;;5126328;27;20231;-80
2023/01/17 01:53:47;;;;;;;1.10;1.02;;;4.20;1.00;;;;;;5139079;27;20684;-80
2023/01/17 01:56:18;;;;;;;1.20;1.20;;;4.20;99.90;;;;;;5117865;27;20194;-80
2023/01/17 01:58:51;;;;;;;1.10;1.10;;;4.10;1.00;;;;;;5124392;27;20196;-80
2023/01/17 02:01:19;;;;;;;1.10;1.10;;;4.20;99.90;;;;;;5146578;27;20210;-80
2023/01/17 02:03:49;;;;;;;2.55;1.17;;;4.20;1.00;;;;;;5144481;27;20190;-79
2023/01/17 02:06:28;;;;;;;1.80;1.08;;;4.20;99.90;;;;;;5126280;27;20652;-80
2023/01/17 02:09:00;;;;;;;1.30;1.10;;;4.20;99.90;;;;;;5138723;27;20194;-79
2023/01/17 02:11:28;;;;;;;1.08;1.08;;;4.20;1.00;;;;;;5142631;27;20246;-80
2023/01/17 02:13:58;;;;;;;1.10;1.10;;;4.20;1.00;;;;;;5145915;27;20209;-82
2023/01/17 02:16:44;;;;;;;1.20;1.05;;;4.20;1.00;;;;;;5149881;27;20569;-80
2023/01/17 02:19:46;;;;;;;1.20;1.10;;;4.20;1.00;;;;;;5148126;27;20199;-81
2023/01/17 02:22:39;;;;;;;1.27;1.10;;;4.10;1.00;;;;;;5145550;27;20216;-83
2023/01/17 02:25:34;;;;;;;1.00;1.00;;;4.20;1.00;;;;;;5141269;27;20208;-79
2023/01/17 02:28:23;;;;;;;0.90;0.90;;;4.20;1.00;;;;;;5146709;27;20209;-81
2023/01/17 02:30:56;;;;;;;0.80;0.80;;;4.20;1.00;;;;;;5145300;27;20221;-81
2023/01/17 02:33:33;;;;;;;1.00;1.00;;;4.30;1.00;;;;;;5145282;27;20221;-81
2023/01/17 02:36:10;;;;;;;0.90;0.90;;;4.20;1.00;;;;;;5140867;27;20892;-81
2023/01/17 02:38:46;;;;;;;1.00;1.00;;;4.20;1.00;;;;;;5145948;27;20611;-82
2023/01/17 02:41:19;;;;;;;0.90;0.90;;;4.20;1.00;;;;;;5146990;27;20767;-83
2023/01/17 02:43:50;;;;;;;1.10;1.10;;;4.20;1.00;;;;;;5141002;27;20246;-81
2023/01/17 02:46:19;;;;;;;1.10;1.00;;;4.30;13.60;;;;;;5145827;27;20257;-83
2023/01/17 02:48:48;;;;;;;1.00;1.00;;;4.30;26.10;;;;;;5125464;27;20207;-82
2023/01/17 02:51:31;;;;;;;0.88;0.88;;;4.20;1.00;;;;;;5126349;27;20226;-82
2023/01/17 02:54:11;;;;;;;1.35;1.25;;;4.20;99.90;;;;;;5135103;27;20187;-81
2023/01/17 02:56:48;;;;;;;1.08;1.08;;;4.10;99.90;;;;;;5144363;27;20215;-82
2023/01/17 02:59:30;;;;;;;1.00;1.00;;;4.10;99.90;;;;;;5127192;27;20224;-83
2023/01/17 03:02:09;;;;;;;1.50;1.20;;;4.10;99.90;;;;;;5121229;27;20238;-83
2023/01/17 03:04:42;;;;;;;1.10;1.10;;;4.20;99.90;;;;;;5143669;27;20209;-83
2023/01/17 03:07:15;;;;;;;0.93;0.93;;;4.30;1.00;;;;;;5141092;27;20675;-84
2023/01/17 03:09:45;;;;;;;1.00;1.00;;;4.20;99.90;;;;;;5145844;27;20217;-83
2023/01/17 03:12:13;;;;;;;1.05;1.05;;;4.20;99.90;;;;;;5139397;27;20204;-79
2023/01/17 03:14:42;;;;;;;1.17;1.08;;;4.20;1.00;;;;;;5118057;27;20691;-82
2023/01/17 03:17:11;;;;;;;1.20;1.10;;;4.20;1.00;;;;;;5148262;27;20506;-83
2023/01/17 03:19:40;;;;;;;1.10;1.10;;;4.20;1.00;;;;;;5141703;27;20215;-82
2023/01/17 03:22:08;;;;;;;1.25;1.20;;;4.20;1.00;;;;;;5121881;27;20752;-80
2023/01/17 03:24:36;;;;;;;1.15;1.13;;;4.20;1.00;;;;;;5122051;27;20375;-79
2023/01/17 03:27:04;;;;;;;1.13;1.13;;;4.10;99.90;;;;;;5144348;27;20221;-79
2023/01/17 03:29:32;;;;;;;1.00;1.00;;;4.20;1.00;;;;;;5141489;27;20216;-83
2023/01/17 03:32:00;;;;;;;1.00;1.00;;;4.10;1.00;;;;;;5144493;27;20246;-82
2023/01/17 03:34:30;;;;;;;1.25;1.17;;;4.20;1.00;;;;;;5139722;27;20548;-82
2023/01/17 03:36:58;;;;;;;1.13;1.10;;;4.20;1.00;;;;;;5143323;27;20202;-83
2023/01/17 03:39:26;;;;;;;1.30;1.20;;;4.20;1.00;;;;;;5122819;27;20244;-82
2023/01/17 03:41:54;;;;;;;1.20;1.10;;;4.20;1.00;;;;;;5137227;27;20772;-79
2023/01/17 03:44:22;;;;;;;1.10;1.10;;;4.20;99.90;;;;;;5138279;27;20660;-79
2023/01/17 03:46:50;;;;;;;1.25;1.15;;;4.00;99.90;;;;;;5145162;27;20233;-80
2023/01/17 03:49:18;;;;;;;1.10;1.10;;;4.10;99.90;;;;;;5143190;27;20229;-80
2023/01/17 03:51:48;;;;;;;1.13;1.02;;;3.90;1.00;;;;;;5142952;27;20207;-81
2023/01/17 03:54:16;;;;;;;1.30;1.20;;;3.90;1.00;;;;;;5143991;27;20333;-80
2023/01/17 03:56:44;;;;;;;2.92;1.20;;;3.90;99.90;;;;;;5142586;27;20557;-81
2023/01/17 03:59:12;;;;;;;3.20;1.17;;;4.00;10.00;;;;;;5142764;27;20198;-82
2023/01/17 04:01:41;;;;;;;1.10;1.10;;;4.00;1.00;;;;;;5152781;27;20222;-81
2023/01/17 04:04:09;;;;;;;1.23;1.23;;;4.00;1.00;;;;;;5142070;27;20197;-81
2023/01/17 04:06:37;;;;;;;1.40;1.30;;;4.10;99.90;;;;;;5126521;27;20197;-81
2023/01/17 04:09:07;;;;;;;1.30;1.20;;;4.10;99.90;;;;;;5139496;27;20216;-82
2023/01/17 04:11:35;;;;;;;1.95;1.50;;;4.10;99.90;;;;;;5138519;27;20737;-82
2023/01/17 04:14:03;;;;;;;2.03;1.15;;;4.00;99.90;;;;;;5139351;27;20724;-82
2023/01/17 04:16:32;;;;;;;1.40;1.30;;;4.00;99.90;;;;;;5138788;27;20724;-84
2023/01/17 04:19:00;;;;;;;2.45;1.30;;;4.00;99.90;;;;;;5141117;27;20377;-83
2023/01/17 04:21:28;;;;;;;1.50;1.40;;;4.10;99.90;;;;;;5137690;27;20760;-83
2023/01/17 04:23:57;;;;;;;2.70;1.30;;;4.10;99.90;;;;;;5136928;27;20673;-83
2023/01/17 04:26:26;;;;;;;1.30;1.20;;;4.00;29.70;;;;;;5122820;27;20401;-83
2023/01/17 04:28:55;;;;;;;1.52;1.00;;;4.00;99.90;;;;;;5143772;27;20193;-83
2023/01/17 04:31:23;;;;;;;2.65;1.20;;;3.90;99.90;;;;;;5145879;27;20221;-84
2023/01/17 04:33:51;;;;;;;4.20;1.30;;;3.90;1.00;;;;;;5141411;27;21423;-83
2023/01/17 04:36:19;;;;;;;1.88;1.38;;;4.00;99.90;;;;;;5127398;27;20202;-83
2023/01/17 04:38:48;;;;;;;1.17;1.17;;;4.00;99.90;;;;;;5121428;27;20201;-83
2023/01/17 04:41:16;;;;;;;1.40;1.30;;;4.00;99.90;;;;;;5146163;27;20507;-83
2023/01/17 04:43:45;;;;;;;1.40;1.30;;;3.90;1.00;;;;;;5142582;27;20252;-82
2023/01/17 04:46:13;;;;;;;1.55;1.10;;;3.80;99.90;;;;;;5149471;27;20212;-80
2023/01/17 04:48:42;;;;;;;1.60;1.50;;;4.00;99.90;;;;;;5144960;27;20791;-82
2023/01/17 04:51:10;;;;;;;1.40;1.30;;;3.80;99.90;;;;;;5147548;27;20225;-82
2023/01/17 04:53:38;;;;;;;1.60;1.48;;;3.90;99.90;;;;;;5146940;27;20209;-83
2023/01/17 04:56:07;;;;;;;1.58;1.48;;;4.00;27.80;;;;;;5145663;27;20278;-85
2023/01/17 04:58:35;;;;;;;1.30;1.20;;;3.90;62.40;;;;;;5145980;27;20896;-83
2023/01/17 05:01:05;;;;;;;1.20;1.20;;;4.00;1.00;;;;;;5143411;27;20275;-83
2023/01/17 05:03:34;;;;;;;1.10;1.10;;;4.00;1.00;;;;;;5125636;27;20230;-83
2023/01/17 05:06:03;;;;;;;3.00;1.30;;;3.90;1.00;;;;;;5149808;27;20736;-81
2023/01/17 05:08:31;;;;;;;1.30;1.20;;;3.90;1.00;;;;;;5140945;27;20575;-77
2023/01/17 05:10:59;;;;;;;1.50;1.40;;;3.90;99.90;;;;;;5141539;27;20841;-78
2023/01/17 05:13:27;;;;;;;1.20;1.20;;;3.90;73.40;;;;;;5152751;27;20194;-85
2023/01/17 05:15:57;;;;;;;1.30;1.20;;;3.90;1.00;;;;;;5155741;27;20201;-83
2023/01/17 05:18:26;;;;;;;1.33;1.23;;;3.90;1.00;;;;;;5134360;27;20676;-83
2023/01/17 05:20:54;;;;;;;1.30;1.20;;;3.90;1.00;;;;;;5146214;27;20214;-82
2023/01/17 05:23:24;;;;;;;1.88;1.10;;;3.80;1.00;;;;;;5138045;27;20217;-83
2023/01/17 05:25:52;;;;;;;1.50;1.40;;;3.90;1.00;;;;;;5156734;27;20206;-83
2023/01/17 05:28:20;;;;;;;2.75;1.20;;;3.80;1.00;;;;;;5147615;27;20197;-82
2023/01/17 05:30:48;;;;;;;1.20;1.20;;;3.80;1.00;;;;;;5141128;27;20703;-82
2023/01/17 05:33:17;;;;;;;2.55;1.23;;;3.90;1.00;;;;;;5144919;27;20723;-81
2023/01/17 05:35:46;;;;;;;1.20;1.20;;;3.90;1.00;;;;;;5139468;27;20723;-81
2023/01/17 05:38:14;;;;;;;1.30;1.20;;;3.90;1.00;;;;;;5139457;27;20305;-82
2023/01/17 05:40:42;;;;;;;1.15;1.10;;;3.90;1.00;;;;;;5126498;27;20243;-82
2023/01/17 05:43:10;;;;;;;1.48;1.10;;;4.00;1.00;;;;;;5139419;27;20218;-81
2023/01/17 05:45:39;;;;;;;1.88;1.67;;;4.00;1.00;;;;;;5144817;27;20213;-81
2023/01/17 05:48:07;;;;;;;1.13;1.13;;;3.90;1.00;;;;;;5140488;27;20232;-82
2023/01/17 05:50:37;;;;;;;1.05;1.00;;;4.00;1.00;;;;;;5141826;27;20221;-82
2023/01/17 05:53:08;;;;;;;1.30;1.20;;;4.10;1.00;;;;;;5141705;27;20190;-80
2023/01/17 05:55:37;;;;;;;1.70;1.13;;;4.00;99.90;;;;;;5141350;27;20205;-80
2023/01/17 05:58:07;;;;;;;1.63;1.52;;;4.00;99.90;;;;;;5119596;27;20558;-80
2023/01/17 06:00:36;;;;;;;2.20;1.70;;;3.90;99.90;;;;;;5139465;27;20250;-80
2023/01/17 06:03:04;;;;;;;2.25;1.20;;;4.00;99.90;;;;;;5139855;27;20217;-81
2023/01/17 06:05:33;;;;;;;1.50;1.30;;;4.00;99.90;;;;;;5142421;27;20200;-81
2023/01/17 06:08:01;;;;;;;2.20;1.73;;;4.00;99.90;;;;;;5142211;27;20709;-80
2023/01/17 06:10:31;;;;;;;1.20;1.10;;;3.90;99.90;;;;;;5142713;27;20243;-81
2023/01/17 06:13:05;;;;;;;1.38;1.27;;;4.00;99.90;;;;;;5150190;27;20232;-81
2023/01/17 06:15:35;;;;;;;1.30;1.20;;;4.00;99.90;;;;;;5143639;27;20193;-81
2023/01/17 06:18:07;;;;;;;1.75;1.30;;;3.90;99.90;;;;;;5147799;27;20207;-80
2023/01/17 06:20:35;;;;;;;1.10;1.10;;;3.80;1.00;;;;;;5147259;27;20248;-80
2023/01/17 06:23:05;;;;;;;1.30;1.20;;;3.90;99.90;;;;;;5142900;27;20217;-81
2023/01/17 06:25:38;;;;;;;1.40;1.30;;;4.00;99.90;;;;;;5143570;27;20194;-83
2023/01/17 06:28:06;;;;;;;1.50;1.40;;;3.90;99.90;;;;;;5143477;27;20207;-80
2023/01/17 06:30:35;;;;;;;1.40;1.30;;;3.90;1.00;;;;;;5124958;27;20390;-83
2023/01/17 06:33:04;;;;;;;1.38;1.27;;;3.90;99.90;;;;;;5144227;27;20201;-79
2023/01/17 06:35:32;;;;;;;1.30;1.20;;;3.90;99.90;;;;;;5144287;27;20250;-83
2023/01/17 06:38:00;;;;;;;1.60;1.50;;;3.90;99.90;;;;;;5139703;27;20202;-80
2023/01/17 06:40:30;;;;;;;1.30;1.20;;;4.00;99.90;;;;;;5142303;27;20850;-82
2023/01/17 06:43:01;;;;;;;1.40;1.30;;;4.00;99.90;;;;;;5140507;27;20212;-83
2023/01/17 06:45:30;;;;;;;1.65;1.40;;;4.00;99.90;;;;;;5144280;27;20247;-83
2023/01/17 06:47:59;;;;;;;1.40;1.30;;;3.90;99.90;;;;;;5142879;27;20216;-82
2023/01/17 06:50:27;;;;;;;1.80;1.00;;;4.00;99.90;;;;;;5137495;27;20284;-80
2023/01/17 06:52:57;;;;;;;1.20;1.20;;;4.00;99.90;;;;;;5126843;27;20768;-82
2023/01/17 06:55:27;;;;;;;1.52;1.30;;;4.00;99.90;;;;;;5136023;27;20230;-82
2023/01/17 06:57:56;;;;;;;2.13;1.55;;;4.00;99.90;;;;;;5140024;27;20275;-82
2023/01/17 07:00:26;;;;;;;1.42;1.42;;;3.80;99.90;;;;;;5117434;27;20204;-82
2023/01/17 07:02:55;;;;;;;1.50;1.40;;;3.90;99.90;;;;;;5135893;27;20211;-82
2023/01/17 07:05:23;;;;;;;1.52;1.30;;;3.70;99.90;;;;;;5138376;27;20444;-81
2023/01/17 07:07:52;;;;;;;1.13;1.13;;;3.70;99.90;;;;;;5121603;27;20216;-83
2023/01/17 07:10:22;;;;;;;1.90;1.20;;;3.80;99.90;;;;;;5121544;27;20229;-81
2023/01/17 07:12:51;;;;;;;1.10;1.10;;;3.90;92.10;;;;;;5138524;27;20208;-82
2023/01/17 07:15:19;;;;;;;1.50;1.40;;;3.90;99.90;;;;;;5124251;27;20620;-83
2023/01/17 07:17:48;;;;;;;1.00;1.00;;;3.80;99.90;;;;;;5140083;27;20293;-82
2023/01/17 07:20:17;;;;;;;1.23;1.13;;;3.90;99.90;;;;;;5141859;27;20724;-83
2023/01/17 07:22:45;;;;;;;1.20;1.10;;;4.00;99.90;;;;;;5135229;27;20219;-82
2023/01/17 07:25:13;;;;;;;1.30;1.23;;;4.00;88.20;;;;;;5137933;27;20202;-82
2023/01/17 07:27:42;;;;;;;1.40;1.30;;;3.90;99.90;;;;;;5132492;27;20303;-82
2023/01/17 07:30:11;;;;;;;1.15;1.10;;;4.00;4.10;;;;;;5140665;27;20205;-83
2023/01/17 07:32:39;;;;;;;0.90;0.90;;;4.00;1.00;;;;;;5138256;27;20208;-81
2023/01/17 07:35:09;;;;;;;1.00;1.00;;;4.00;1.00;;;;;;5134427;27;20198;-82
2023/01/17 07:37:38;;;;;;;1.00;1.00;;;3.90;1.00;;;;;;5137378;27;20205;-82
2023/01/17 07:40:07;;;;;;;1.30;1.30;;;3.90;1.00;;;;;;5136215;27;20241;-82
2023/01/17 07:42:35;;;;;;;1.00;1.00;;;3.90;1.00;;;;;;5136463;27;21525;-81
2023/01/17 07:45:04;;;;;;;1.10;1.10;;;3.90;1.00;;;;;;5137027;27;20217;-81
2023/01/17 07:47:32;;;;;;;1.00;1.00;;;3.80;1.00;;;;;;5137146;27;20219;-81
2023/01/17 07:50:01;;;;;;;1.02;1.02;;;3.70;49.20;;;;;;5137902;27;20231;-81
2023/01/17 07:52:31;;;;;;;1.25;0.90;;;3.70;99.90;;;;;;5140750;27;20211;-80
2023/01/17 07:54:59;;;;;;;1.30;1.20;;;3.60;99.90;;;;;;5138446;27;20617;-82
2023/01/17 07:57:27;;;;;;;1.10;1.10;;;3.70;99.90;;;;;;5120888;27;20185;-82
2023/01/17 07:59:55;;;;;;;2.28;1.50;;;3.90;99.90;;;;;;5117782;27;20220;-81
2023/01/17 08:02:24;;;;;;;1.73;1.63;;;3.90;99.90;;;;;;5135347;27;20199;-82
2023/01/17 08:04:52;;;;;;;1.90;1.80;;;4.00;97.30;;;;;;5138098;27;20213;-82
2023/01/17 08:07:20;;;;;;;1.38;1.27;;;4.00;99.90;;;;;;5117132;27;20196;-81
2023/01/17 08:09:50;;;;;;;2.05;1.40;;;3.90;99.90;;;;;;5136069;27;20475;-83
2023/01/17 08:12:18;;;;;;;1.80;1.70;;;4.00;49.60;;;;;;5138885;27;20220;-80
2023/01/17 08:14:46;;;;;;;1.65;1.55;;;4.20;1.00;;;;;;5130204;27;20189;-82
2023/01/17 08:17:16;;;;;;;1.38;1.27;;;4.20;4.60;;;;;;5134076;27;20198;-82
2023/01/17 08:19:44;;;;;;;1.60;1.50;;;4.10;98.80;;;;;;5138253;27;20229;-81
2023/01/17 08:22:12;;;;;;;2.35;1.52;;;4.20;99.90;;;;;;5137338;27;20451;-82
2023/01/17 08:24:41;;;;;;;1.23;1.15;;;4.20;77.90;;;;;;5116921;27;20622;-82
2023/01/17 08:27:11;;;;;;;2.35;1.10;;;4.30;40.10;;;;;;5136928;27;20202;-83
2023/01/17 08:29:41;;;;;;;2.25;1.10;;;4.30;1.00;;;;;;5132910;27;20220;-82
2023/01/17 08:32:09;;;;;;;1.15;1.13;;;4.40;1.00;;;;;;5135632;27;20194;-82
2023/01/17 08:34:37;;;;;;;1.40;1.30;;;4.50;1.00;;;;;;5140288;27;20705;-82
2023/01/17 08:37:06;;;;;;;1.60;1.50;;;4.50;1.00;;;;;;5114853;27;20201;-81
2023/01/17 08:39:34;;;;;;;1.50;1.40;;;4.60;1.00;;;;;;5134636;27;20226;-82
2023/01/17 08:42:02;;;;;;;1.45;1.20;;;4.60;1.00;;;;;;5134866;27;20209;-79
2023/01/17 08:44:32;;;;;;;2.58;1.40;;;4.70;1.00;;;;;;5122558;27;20206;-78
2023/01/17 08:47:01;;;;;;;1.25;1.17;;;4.80;1.00;;;;;;5113583;27;20201;-78
2023/01/17 08:49:29;;;;;;;1.30;1.20;;;4.80;1.00;;;;;;5135190;27;20258;-78
2023/01/17 08:51:57;;;;;;;1.52;1.42;;;4.80;1.00;;;;;;5136601;27;20554;-78
2023/01/17 08:54:26;;;;;;;1.50;1.40;;;4.70;1.00;;;;;;5131167;27;20198;-78
2023/01/17 08:56:54;;;;;;;1.50;1.40;;;4.70;1.00;;;;;;5126820;27;20243;-76
2023/01/17 08:59:22;;;;;;;1.40;1.30;;;4.70;1.00;;;;;;5135168;27;20214;-78
2023/01/17 09:01:56;;;;;;;1.48;1.38;;;4.70;1.00;;;;;;5138189;27;20194;-81
2023/01/17 09:04:25;;;;;;;1.55;1.30;;;4.80;1.00;;;;;;5134734;27;20205;-82
2023/01/17 09:06:53;;;;;;;3.15;1.40;;;4.70;1.00;;;;;;5144370;27;20194;-82
2023/01/17 09:09:21;;;;;;;1.50;1.40;;;4.80;1.00;;;;;;5140498;27;20198;-82
2023/01/17 09:11:50;;;;;;;1.15;1.10;;;4.90;1.00;;;;;;5140383;27;20193;-82
2023/01/17 09:14:18;;;;;;;1.00;1.00;;;4.90;1.00;;;;;;5148879;27;20200;-81
2023/01/17 09:16:47;;;;;;;1.20;1.10;;;5.00;1.00;;;;;;5127743;27;20213;-82
2023/01/17 09:19:17;;;;;;;1.00;1.00;;;5.00;99.90;;;;;;5143718;27;20208;-81
2023/01/17 09:21:45;;;;;;;1.80;1.33;;;5.10;1.00;;;;;;5147222;27;20204;-82
2023/01/17 09:24:13;;;;;;;1.10;1.10;;;5.10;99.90;;;;;;5148672;27;20236;-80
2023/01/17 09:26:41;;;;;;;1.20;1.10;;;5.20;99.90;;;;;;5131463;27;20755;-82
2023/01/17 09:29:10;;;;;;;1.27;1.20;;;5.30;99.90;;;;;;5129986;27;20611;-82
2023/01/17 09:31:40;;;;;;;1.30;1.20;;;5.40;99.90;;;;;;5148288;27;20456;-80
2023/01/17 09:34:08;;;;;;;1.42;1.10;;;5.40;99.90;;;;;;5141675;27;20200;-81
2023/01/17 09:36:37;;;;;;;2.67;1.40;;;5.40;99.90;;;;;;5145774;27;20215;-82
2023/01/17 09:39:06;;;;;;;0.93;0.93;;;5.30;99.90;;;;;;5147396;27;20452;-80
2023/01/17 09:41:37;;;;;;;1.10;1.10;;;5.20;99.90;;;;;;5150299;27;20227;-82
2023/01/17 09:44:11;;;;;;;1.00;1.00;;;5.20;99.90;;;;;;5150765;27;20213;-81
2023/01/17 09:46:42;;;;;;;1.00;1.00;;;5.30;99.90;;;;;;5154867;27;20201;-82
2023/01/17 09:49:18;;;;;;;1.10;1.10;;;5.60;99.90;;;;;;5151121;27;20453;-81
2023/01/17 09:51:47;;;;;;;2.25;1.10;;;5.90;99.90;;;;;;5155686;27;21057;-82
2023/01/17 09:54:22;;;;;;;1.10;1.10;;;6.20;99.90;;;;;;5130614;27;20227;-82
2023/01/17 09:57:00;;;;;;;1.00;1.00;;;6.40;99.90;;;;;;5144553;27;20431;-82
2023/01/17 09:59:38;;;;;;;1.03;1.03;;;6.90;99.90;;;;;;5147073;27;20493;-81
2023/01/17 10:02:31;;;;;;;1.07;1.07;;;7.00;99.90;;;;;;5144002;27;20450;-81
2023/01/17 10:05:15;;;;;;;1.20;1.20;;;7.20;99.90;;;;;;5141151;27;20494;-83
2023/01/17 10:08:00;;;;;;;1.37;1.37;;;7.40;99.90;;;;;;5137645;27;20452;-83
2023/01/17 10:10:39;;;;;;;1.30;1.20;;;7.70;99.90;;;;;;5144557;27;20479;-82
2023/01/17 10:13:17;;;;;;;1.50;1.40;;;7.90;99.90;;;;;;5140341;27;20890;-82
2023/01/17 10:15:56;;;;;;;1.07;1.07;;;8.20;99.90;;;;;;5147602;27;20448;-82
2023/01/17 10:18:56;;;;;;;1.40;1.10;;;8.50;99.90;;;;;;5143499;27;20535;-83
2023/01/17 10:21:33;;;;;;;1.13;1.00;;;8.90;99.90;;;;;;5142694;27;20490;-81
2023/01/17 10:24:17;;;;;;;1.07;1.00;;;9.20;99.90;;;;;;5134712;27;20447;-80
2023/01/17 10:26:48;;;;;;;0.90;0.90;;;9.50;99.90;;;;;;5132014;27;20775;-80
2023/01/17 10:29:19;;;;;;;1.10;1.00;;;9.70;99.90;;;;;;5134555;27;20482;-81
2023/01/17 10:31:55;;;;;;;2.60;1.10;;;10.10;99.90;;;;;;5134151;27;20461;-81
2023/01/17 10:34:29;;;;;;;1.00;1.00;;;10.20;99.90;;;;;;5140409;27;20819;-79
2023/01/17 10:37:03;;;;;;;1.10;1.00;;;10.50;99.90;;;;;;5139879;27;20624;-81
2023/01/17 10:39:33;;;;;;;1.43;1.30;;;10.70;99.90;;;;;;5139800;27;20490;-80
2023/01/17 10:42:07;;;;;;;1.00;1.00;;;10.80;99.90;;;;;;5137377;27;20958;-80
2023/01/17 10:44:41;;;;;;;1.20;1.10;;;11.10;99.90;;;;;;5132800;27;20812;-79
2023/01/17 10:47:19;;;;;;;0.90;0.90;;;11.10;99.90;;;;;;5130991;27;20829;-81
2023/01/17 10:49:52;;;;;;;0.80;0.80;;;11.20;99.90;;;;;;5137132;27;20478;-78
2023/01/17 10:52:31;;;;;;;1.20;1.10;;;10.80;99.90;;;;;;5107415;27;20917;-79
2023/01/17 10:55:24;;;;;;;1.00;1.00;;;10.50;99.90;;;;;;5070971;28;21025;-80
2023/01/17 10:57:54;;;;;;;0.90;0.90;;;10.60;99.90;;;;;;5077829;28;20462;-81
2023/01/17 11:00:38;;;;;;;0.80;0.80;;;10.90;99.90;;;;;;5078617;28;20478;-80
2023/01/17 11:03:09;;;;;;;1.00;1.00;;;10.80;96.40;;;;;;5075676;28;20463;-81
2023/01/17 11:05:39;;;;;;;1.70;1.00;;;10.90;99.90;;;;;;5079330;28;21068;-81
2023/01/17 11:08:09;;;;;;;1.10;1.10;;;11.20;99.90;;;;;;5073000;28;20523;-79
2023/01/17 11:10:43;;;;;;;1.20;1.10;;;11.00;98.10;;;;;;5074315;28;20561;-79
2023/01/17 11:13:25;;;;;;;1.77;1.43;;;10.90;95.60;;;;;;5077126;28;20450;-80
2023/01/17 11:15:56;;;;;;;1.20;1.10;;;10.70;95.60;;;;;;5079161;28;20450;-79
2023/01/17 11:18:28;;;;;;;1.00;1.00;;;10.40;93.90;;;;;;5076983;28;20474;-80
2023/01/17 11:21:10;;;;;;;0.80;0.80;;;10.50;93.90;;;;;;5077290;28;20489;-80
2023/01/17 11:23:41;;;;;;;0.80;0.80;;;10.60;92.70;;;;;;5075669;28;20457;-80
2023/01/17 11:26:12;;;;;;;0.90;0.90;;;10.70;92.50;;;;;;5074717;28;20487;-79
2023/01/17 11:28:41;;;;;;;1.00;1.00;;;10.70;90.60;;;;;;5076164;28;20813;-79
2023/01/17 11:31:24;;;;;;;0.80;0.80;;;10.70;90.40;;;;;;5074488;28;20546;-79
2023/01/17 11:34:08;;;;;;;0.90;0.90;;;10.70;82.70;;;;;;5071534;28;21313;-79
2023/01/17 11:36:36;;;;;;;0.90;0.90;;;10.60;76.40;;;;;;5070565;28;20447;-79
2023/01/17 11:39:07;;;;;;;0.93;0.93;;;10.50;80.50;;;;;;5070696;28;20462;-80
2023/01/17 11:41:38;;;;;;;2.40;1.10;;;10.30;76.70;;;;;;5069303;28;20528;-81
2023/01/17 11:44:22;;;;;;;1.33;1.00;;;10.30;79.80;;;;;;5069084;28;20465;-79
2023/01/17 11:47:08;;;;;;;3.13;1.20;;;10.20;87.80;;;;;;5069453;28;20485;-80
2023/01/17 11:49:37;;;;;;;1.30;1.20;;;9.90;79.60;;;;;;5075539;28;20479;-80
2023/01/17 11:52:09;;;;;;;1.30;1.20;;;9.90;87.00;;;;;;5069015;28;20541;-78
2023/01/17 11:54:41;;;;;;;1.20;1.10;;;9.80;87.40;;;;;;5070446;28;20497;-80
2023/01/17 11:57:20;;;;;;;1.30;1.00;;;9.60;82.40;;;;;;5067575;28;20574;-80
2023/01/17 11:59:51;;;;;;;1.03;1.03;;;9.50;79.40;;;;;;5069638;28;20472;-80
2023/01/17 12:02:42;;;;;;;1.30;1.20;;;9.40;80.80;;;;;;5070877;28;20463;-79
2023/01/17 12:05:39;;;;;;;1.27;1.17;;;9.30;85.30;;;;;;5069133;28;20472;-80
2023/01/17 12:08:17;;;;;;;1.07;1.07;;;9.10;82.90;;;;;;5074897;28;20539;-81
2023/01/17 12:10:55;;;;;;;1.73;1.40;;;8.90;75.50;;;;;;5070560;28;20484;-79
2023/01/17 12:16:32;;;;;;;1.30;1.20;;;8.60;79.00;;;;;;5069930;28;20454;-79
2023/01/17 12:19:27;;;;;;;1.57;1.17;;;8.50;74.90;;;;;;5069713;28;20453;-81
2023/01/17 12:22:07;;;;;;;1.87;1.20;;;8.40;80.40;;;;;;5070867;28;20461;-79
2023/01/17 12:25:02;;;;;;;1.50;1.10;;;8.40;83.40;;;;;;5066528;28;20460;-80
2023/01/17 12:27:39;;;;;;;1.63;1.20;;;8.30;81.10;;;;;;5066538;28;20599;-80
2023/01/17 12:30:26;;;;;;;1.00;1.00;;;8.20;70.90;;;;;;5074985;28;20561;-79
2023/01/17 12:33:14;;;;;;;0.90;0.90;;;7.90;60.70;;;;;;5073656;28;20481;-80
2023/01/17 12:35:49;;;;;;;1.33;1.23;;;7.80;62.30;;;;;;5071894;28;20515;-80
2023/01/17 12:38:23;;;;;;;3.03;1.10;;;7.80;61.80;;;;;;5075806;28;20463;-80
2023/01/17 12:41:06;;;;;;;1.00;1.00;;;7.70;60.80;;;;;;5078484;28;20478;-78
2023/01/17 12:43:37;;;;;;;0.90;0.90;;;7.60;62.30;;;;;;5072882;28;20449;-80
2023/01/17 12:46:15;;;;;;;0.90;0.90;;;7.70;60.80;;;;;;5076121;28;20475;-80
2023/01/17 12:48:45;;;;;;;1.10;1.00;;;7.60;59.00;;;;;;5081577;28;21080;-80
2023/01/17 12:51:16;;;;;;;1.10;1.00;;;7.60;62.20;;;;;;5082791;28;20503;-80
2023/01/17 12:53:55;;;;;;;1.20;1.10;;;7.60;67.00;;;;;;5080924;28;20610;-79
2023/01/17 12:56:28;;;;;;;1.10;1.00;;;7.60;63.30;;;;;;5080667;28;20530;-79
2023/01/17 12:59:05;;;;;;;1.73;1.63;;;7.50;71.50;;;;;;5064287;28;20469;-80
2023/01/17 13:01:38;;;;;;;1.40;1.30;;;7.60;77.70;;;;;;5076518;28;21373;-80
2023/01/17 13:04:18;;;;;;;1.30;1.20;;;7.50;75.80;;;;;;5072175;28;20557;-80
2023/01/17 13:06:58;;;;;;;2.13;1.20;;;7.50;83.00;;;;;;5074887;28;21452;-79
2023/01/17 13:09:31;;;;;;;1.27;1.17;;;7.40;82.00;;;;;;5078350;28;20860;-79
2023/01/17 13:12:04;;;;;;;1.37;1.10;;;7.40;87.20;;;;;;5076809;28;21235;-79
2023/01/17 13:14:33;;;;;;;2.23;1.20;;;7.40;85.50;;;;;;5077785;28;20931;-79
2023/01/17 13:17:10;;;;;;;1.43;1.17;;;7.40;80.10;;;;;;5078207;28;20987;-79
2023/01/17 13:19:47;;;;;;;1.00;1.00;;;7.30;74.20;;;;;;5078271;28;20481;-79
2023/01/17 13:22:18;;;;;;;1.03;0.93;;;7.20;75.30;;;;;;5077213;28;20450;-78
2023/01/17 13:24:55;;;;;;;2.10;1.00;;;7.00;67.50;;;;;;5081145;28;20502;-79
2023/01/17 13:27:47;;;;;;;1.30;1.20;;;7.00;68.90;;;;;;5082177;28;20469;-79
2023/01/17 13:30:30;;;;;;;1.30;1.20;;;7.10;70.90;;;;;;5081468;28;20843;-79
2023/01/17 13:33:20;;;;;;;2.60;1.10;;;7.10;65.70;;;;;;5079703;28;20458;-79
2023/01/17 13:35:59;;;;;;;1.00;1.00;;;7.10;68.30;;;;;;5081223;28;20492;-79
2023/01/17 13:39:00;;;;;;;1.23;1.20;;;7.10;66.70;;;;;;5077370;28;20443;-79
2023/01/17 13:41:42;;;;;;;1.00;1.00;;;7.00;58.10;;;;;;5065455;28;20540;-79
2023/01/17 13:44:23;;;;;;;1.33;1.23;;;7.00;57.80;;;;;;5077677;28;20455;-79
2023/01/17 13:47:01;;;;;;;1.00;1.00;;;7.00;63.60;;;;;;5083248;28;21874;-79
2023/01/17 13:49:35;;;;;;;1.20;1.10;;;7.00;58.00;;;;;;5090065;28;20523;-79
2023/01/17 13:52:11;;;;;;;0.97;0.97;;;6.90;59.00;;;;;;5083234;28;20461;-79
2023/01/17 13:54:47;;;;;;;1.30;1.00;;;6.90;58.20;;;;;;5080980;28;20451;-79
2023/01/17 13:57:45;;;;;;;1.43;0.90;;;6.80;57.50;;;;;;5088400;28;20542;-76
2023/01/17 14:00:58;;;;;;;1.20;1.10;;;6.80;58.40;;;;;;5086620;28;20497;-78
2023/01/17 14:04:05;;;;;;;1.20;1.00;;;6.80;58.20;;;;;;5090834;28;20447;-80
2023/01/17 14:06:44;;;;;;;1.10;1.10;;;6.70;54.50;;;;;;5071461;28;20477;-80
2023/01/17 14:09:18;;;;;;;0.97;0.97;;;6.60;53.80;;;;;;5082401;28;20454;-80
2023/01/17 14:12:03;;;;;;;2.10;0.90;;;6.60;56.60;;;;;;5072301;28;20453;-79
2023/01/17 14:14:46;;;;;;;1.17;1.03;;;6.50;51.70;;;;;;5078013;28;20452;-80
2023/01/17 14:17:58;;;;;;;2.30;1.10;;;6.40;53.30;;;;;;5070370;28;20510;-80
2023/01/17 14:20:50;;;;;;;1.83;1.73;;;6.40;58.00;;;;;;5079971;28;20886;-78
2023/01/17 14:23:47;;;;;;;0.90;0.90;;;6.50;57.10;;;;;;5072037;28;21326;-80
2023/01/17 14:26:32;;;;;;;1.50;1.10;;;6.50;57.90;;;;;;5066161;28;20541;-79
2023/01/17 14:29:34;;;;;;;2.00;1.30;;;6.40;61.10;;;;;;5068888;28;20498;-79
2023/01/17 14:32:05;;;;;;;1.73;1.13;;;6.40;64.30;;;;;;5065960;28;20484;-80
2023/01/17 14:34:34;;;;;;;2.00;1.30;;;6.40;59.80;;;;;;5066915;28;20466;-79
2023/01/17 14:37:18;;;;;;;1.20;1.10;;;6.40;57.00;;;;;;5068652;28;20470;-80
2023/01/17 14:39:49;;;;;;;2.00;1.40;;;6.30;59.00;;;;;;5069780;28;20516;-79
2023/01/17 14:42:20;;;;;;;1.10;1.10;;;6.30;63.50;;;;;;5069873;28;20464;-79
2023/01/17 14:44:51;;;;;;;1.07;1.00;;;6.40;62.00;;;;;;5072812;28;20449;-79
2023/01/17 14:47:21;;;;;;;1.20;1.10;;;6.30;62.50;;;;;;5070679;28;20487;-80
2023/01/17 14:49:56;;;;;;;1.10;1.10;;;6.30;62.30;;;;;;5073751;28;20474;-80
2023/01/17 14:52:25;;;;;;;1.53;1.43;;;6.20;66.70;;;;;;5077104;28;20453;-79
2023/01/17 14:54:54;;;;;;;1.30;1.20;;;6.20;71.50;;;;;;5070401;28;20459;-78
2023/01/17 14:57:28;;;;;;;1.73;1.20;;;6.20;76.90;;;;;;5078653;28;20449;-78